Weather at Ski Airfield

Public forecast

Using degrees Celsius for public forecast. Weather courtesy of forecast.io.

Closest aviation weather report (METAR) to Ski Airfield

Closest report is Moss Airport, Rygge, 19.9 nm (36.8 km) S.

2024/05/28 17:20 (retrieved 21 minutes ago)

ENRY 281720Z 10009KT 5000 RA VV014 15/14 Q1009

Closest aviation forecast (TAF) to Ski Airfield

Closest forecast is Moss Airport, Rygge, 19.9 nm (36.8 km) S.

2024/05/28 14:36 Ammendment (retrieved 3 hours ago)

TAF AMD ENRY 281426Z 2814/2912 12008KT 9999 -SHRA SCT030TCU BKN050 TEMPO 2815/2819 3000 SHRA TS BKN014 SCT025CB BECMG 2819/2821 20010KT PROB40 2819/2906 BKN008